Time;durP1;ratioP1;P1;durP2;ratioP2;P2;SDS_P1;SDS_P2;PMS_P1;PMS_P2;Temp;Humidity;BMP_temperature;BMP_pressure;BME280_temperature;BME280_humidity;BME280_pressure;Samples;Min_cycle;Max_cycle;Signal;HPM_P1;HPM_P2
2022/10/17 00:00:11;;;;;;;1.77;1.67;;;15.70;99.90;;;;;;5128393;27;20209;-69
2022/10/17 00:02:38;;;;;;;2.50;1.93;;;15.70;99.90;;;;;;5128151;27;20586;-69
2022/10/17 00:05:05;;;;;;;2.37;1.90;;;15.70;99.90;;;;;;5128376;27;20204;-70
2022/10/17 00:07:32;;;;;;;2.00;1.90;;;15.60;99.90;;;;;;5128275;27;20198;-70
2022/10/17 00:09:59;;;;;;;2.30;2.10;;;15.60;99.90;;;;;;5122923;27;20233;-69
2022/10/17 00:12:27;;;;;;;2.10;1.80;;;15.70;99.90;;;;;;5107401;28;20198;-70
2022/10/17 00:14:54;;;;;;;1.90;1.80;;;15.70;99.90;;;;;;5107612;28;20213;-69
2022/10/17 00:17:20;;;;;;;2.60;1.80;;;15.70;99.90;;;;;;5107796;28;20206;-70
2022/10/17 00:19:47;;;;;;;6.50;1.90;;;15.70;99.90;;;;;;5124566;28;20540;-70
2022/10/17 00:22:14;;;;;;;1.80;1.70;;;15.70;99.90;;;;;;5128019;27;20206;-70
2022/10/17 00:24:41;;;;;;;3.37;2.10;;;15.70;99.90;;;;;;5128229;27;20212;-70
2022/10/17 00:27:07;;;;;;;2.77;1.83;;;15.60;99.90;;;;;;5127805;27;20214;-70
2022/10/17 00:29:35;;;;;;;2.90;2.07;;;15.70;99.90;;;;;;5127830;27;20233;-70
2022/10/17 00:32:02;;;;;;;2.10;2.00;;;15.60;99.90;;;;;;5125268;27;20674;-69
2022/10/17 00:34:29;;;;;;;2.47;1.87;;;15.60;99.90;;;;;;5131181;27;20204;-69
2022/10/17 00:36:57;;;;;;;2.87;2.10;;;15.70;99.90;;;;;;5131840;27;20719;-70
2022/10/17 00:39:24;;;;;;;2.87;2.10;;;15.70;99.90;;;;;;5131830;27;20214;-69
2022/10/17 00:41:51;;;;;;;2.00;1.90;;;15.70;99.90;;;;;;5131467;27;20210;-70
2022/10/17 00:44:59;;;;;;;2.93;2.30;;;15.70;99.90;;;;;;5131750;27;20201;-70
2022/10/17 00:47:26;;;;;;;2.90;2.03;;;15.60;99.90;;;;;;5131675;27;20198;-70
2022/10/17 00:49:53;;;;;;;3.57;2.20;;;15.70;99.90;;;;;;5131852;27;20228;-70
2022/10/17 00:52:23;;;;;;;2.10;1.90;;;15.70;99.90;;;;;;5121116;27;20217;-70
2022/10/17 00:54:54;;;;;;;2.90;2.23;;;15.70;99.90;;;;;;5115790;27;20198;-70
2022/10/17 00:57:21;;;;;;;2.30;2.10;;;15.60;99.90;;;;;;5131437;27;20197;-70
2022/10/17 00:59:52;;;;;;;2.27;2.17;;;15.60;99.90;;;;;;5131868;27;20213;-70
2022/10/17 01:02:22;;;;;;;3.20;2.17;;;15.60;99.90;;;;;;5131282;27;20229;-70
2022/10/17 01:04:52;;;;;;;1.90;1.80;;;15.60;99.90;;;;;;5131633;27;20205;-70
2022/10/17 01:07:18;;;;;;;2.63;2.43;;;15.60;99.90;;;;;;5131404;27;20285;-70
2022/10/17 01:09:46;;;;;;;4.37;2.57;;;15.60;99.90;;;;;;5131671;27;20228;-70
2022/10/17 01:12:20;;;;;;;2.47;2.37;;;15.60;99.90;;;;;;5131369;27;20206;-70
2022/10/17 01:14:58;;;;;;;2.90;2.70;;;15.60;99.90;;;;;;5131647;27;20209;-70
2022/10/17 01:17:39;;;;;;;2.57;2.40;;;15.50;99.90;;;;;;5131235;27;20662;-70
2022/10/17 01:20:35;;;;;;;2.47;2.37;;;15.50;99.90;;;;;;5131126;27;20193;-70
2022/10/17 01:23:18;;;;;;;2.77;2.57;;;15.50;99.90;;;;;;5131129;27;20236;-70
2022/10/17 01:25:53;;;;;;;2.90;2.60;;;15.60;99.90;;;;;;5130570;27;20221;-69
2022/10/17 01:28:51;;;;;;;2.90;2.70;;;15.70;99.90;;;;;;5126486;27;20198;-69
2022/10/17 01:31:22;;;;;;;2.60;2.40;;;15.70;99.90;;;;;;5122204;27;20232;-69
2022/10/17 01:33:59;;;;;;;5.57;2.83;;;15.70;99.90;;;;;;5131060;27;20193;-69
2022/10/17 01:36:38;;;;;;;2.60;2.40;;;15.80;99.90;;;;;;5110301;28;20194;-70
2022/10/17 01:39:14;;;;;;;2.90;2.70;;;15.80;99.90;;;;;;5126703;27;20209;-70
2022/10/17 01:41:47;;;;;;;2.63;2.50;;;15.80;99.90;;;;;;5130315;27;20204;-69
2022/10/17 01:44:19;;;;;;;2.60;2.50;;;15.80;99.90;;;;;;5130441;27;20586;-69
2022/10/17 01:46:50;;;;;;;2.80;2.67;;;15.80;99.90;;;;;;5130576;27;20228;-69
2022/10/17 01:49:23;;;;;;;3.00;2.67;;;15.90;99.90;;;;;;5120087;27;20199;-70
2022/10/17 01:51:54;;;;;;;4.90;2.60;;;15.90;99.90;;;;;;5116283;27;20769;-69
2022/10/17 01:54:25;;;;;;;3.07;2.80;;;15.90;99.90;;;;;;5130284;27;20194;-70
2022/10/17 01:56:58;;;;;;;2.73;2.63;;;15.90;99.90;;;;;;5130498;27;20204;-69
2022/10/17 01:59:29;;;;;;;2.83;2.63;;;15.90;99.90;;;;;;5130599;27;20194;-70
2022/10/17 02:01:58;;;;;;;3.87;3.50;;;15.80;99.90;;;;;;5129807;27;20233;-70
2022/10/17 02:04:26;;;;;;;3.30;3.10;;;15.80;99.90;;;;;;5130275;27;20201;-70
2022/10/17 02:06:52;;;;;;;2.93;2.73;;;15.80;99.90;;;;;;5130217;27;20226;-69
2022/10/17 02:09:21;;;;;;;3.83;3.50;;;15.80;99.90;;;;;;5130037;27;20201;-69
2022/10/17 02:12:07;;;;;;;3.50;3.20;;;15.80;99.90;;;;;;5130102;27;20233;-69
2022/10/17 02:14:46;;;;;;;3.70;3.40;;;15.80;99.90;;;;;;5130364;27;20190;-70
2022/10/17 02:17:21;;;;;;;4.77;3.40;;;15.80;99.90;;;;;;5129829;27;20185;-68
2022/10/17 02:19:55;;;;;;;4.47;3.40;;;15.80;99.90;;;;;;5124461;27;20208;-68
2022/10/17 02:22:32;;;;;;;3.67;3.37;;;15.80;99.90;;;;;;5126719;27;20604;-68
2022/10/17 02:25:06;;;;;;;3.87;3.57;;;15.80;99.90;;;;;;5115896;27;20208;-68
2022/10/17 02:27:40;;;;;;;4.23;3.70;;;15.70;99.90;;;;;;5128017;27;20197;-68
2022/10/17 02:30:12;;;;;;;4.63;3.40;;;15.80;99.90;;;;;;5127437;27;20217;-68
2022/10/17 02:32:44;;;;;;;4.43;3.33;;;15.80;99.90;;;;;;5127766;27;20193;-68
2022/10/17 02:35:14;;;;;;;3.90;3.60;;;15.80;99.90;;;;;;5112323;27;20206;-68
2022/10/17 02:37:43;;;;;;;3.83;3.50;;;15.80;99.90;;;;;;5107105;28;20259;-68
2022/10/17 02:40:13;;;;;;;4.07;3.73;;;15.80;99.90;;;;;;5106539;28;20301;-68
2022/10/17 02:42:43;;;;;;;3.60;3.30;;;15.80;99.90;;;;;;5113447;27;20566;-68
2022/10/17 02:45:11;;;;;;;3.40;3.10;;;15.80;99.90;;;;;;5127336;27;20198;-68
2022/10/17 02:47:43;;;;;;;4.20;3.80;;;15.80;99.90;;;;;;5127342;27;20295;-68
2022/10/17 02:50:11;;;;;;;3.50;3.20;;;15.80;99.90;;;;;;5127334;27;20582;-68
2022/10/17 02:52:45;;;;;;;4.03;3.70;;;15.80;99.90;;;;;;5127423;27;20205;-68
2022/10/17 02:55:17;;;;;;;4.23;3.87;;;15.80;99.90;;;;;;5126874;27;20205;-69
2022/10/17 02:57:47;;;;;;;4.13;3.20;;;15.80;99.90;;;;;;5126078;27;20209;-69
2022/10/17 03:00:16;;;;;;;4.10;3.70;;;15.80;99.90;;;;;;5120412;27;20214;-68
2022/10/17 03:02:46;;;;;;;3.77;3.43;;;15.80;99.90;;;;;;5128039;27;20600;-69
2022/10/17 03:05:17;;;;;;;4.10;3.50;;;15.70;99.90;;;;;;5127869;27;20265;-69
2022/10/17 03:07:44;;;;;;;3.80;3.60;;;15.80;99.90;;;;;;5129480;27;20201;-68
2022/10/17 03:10:11;;;;;;;4.10;3.70;;;15.80;99.90;;;;;;5128926;27;20233;-68
2022/10/17 03:12:38;;;;;;;4.10;3.90;;;15.70;99.90;;;;;;5129459;27;20201;-68
2022/10/17 03:15:05;;;;;;;4.00;3.70;;;15.70;99.90;;;;;;5129201;27;20201;-69
2022/10/17 03:17:32;;;;;;;4.10;3.70;;;15.70;99.90;;;;;;5116910;27;20217;-68
2022/10/17 03:20:00;;;;;;;3.77;3.47;;;15.70;99.90;;;;;;5129094;27;20215;-69
2022/10/17 03:22:27;;;;;;;4.20;3.90;;;15.70;99.90;;;;;;5116953;27;20234;-69
2022/10/17 03:24:54;;;;;;;3.90;3.53;;;15.70;99.90;;;;;;5108426;28;20209;-69
2022/10/17 03:27:21;;;;;;;3.87;3.67;;;15.70;99.90;;;;;;5108149;28;20213;-68
2022/10/17 03:29:47;;;;;;;4.10;3.70;;;15.70;99.90;;;;;;5109520;27;20206;-69
2022/10/17 03:32:14;;;;;;;3.93;3.73;;;15.70;99.90;;;;;;5128580;27;20225;-69
2022/10/17 03:34:41;;;;;;;5.20;3.73;;;15.70;99.90;;;;;;5128537;27;20579;-69
2022/10/17 03:37:09;;;;;;;4.10;3.90;;;15.70;99.90;;;;;;5128556;27;20201;-69
2022/10/17 03:39:36;;;;;;;4.10;3.80;;;15.70;99.90;;;;;;5128672;27;20205;-69
2022/10/17 03:42:02;;;;;;;4.20;3.87;;;15.70;99.90;;;;;;5128340;27;20213;-68
2022/10/17 03:44:29;;;;;;;3.67;3.47;;;15.70;99.90;;;;;;5128253;27;20660;-69
2022/10/17 03:46:56;;;;;;;4.30;3.80;;;15.70;99.90;;;;;;5128716;27;20208;-68
2022/10/17 03:49:23;;;;;;;4.10;3.70;;;15.70;99.90;;;;;;5117085;27;20205;-68
2022/10/17 03:51:50;;;;;;;4.00;3.70;;;15.70;99.90;;;;;;5108087;28;20242;-69
2022/10/17 03:54:18;;;;;;;4.00;3.70;;;15.70;99.90;;;;;;5108043;28;20202;-68
2022/10/17 03:56:44;;;;;;;3.87;3.60;;;15.70;99.90;;;;;;5127884;28;20220;-68
2022/10/17 03:59:13;;;;;;;3.80;3.50;;;15.70;99.90;;;;;;5128361;27;20224;-68
2022/10/17 04:01:41;;;;;;;4.30;4.10;;;15.70;99.90;;;;;;5128008;27;20261;-69
2022/10/17 04:04:09;;;;;;;3.90;3.50;;;15.70;99.90;;;;;;5128142;27;20214;-69
2022/10/17 04:06:36;;;;;;;3.60;3.40;;;15.70;99.90;;;;;;5128312;27;20205;-69
2022/10/17 04:09:03;;;;;;;3.77;3.57;;;15.70;99.90;;;;;;5131224;27;20201;-69
2022/10/17 04:11:31;;;;;;;3.70;3.50;;;15.70;99.90;;;;;;5132157;27;20229;-68
2022/10/17 04:13:59;;;;;;;3.90;3.60;;;15.70;99.90;;;;;;5122400;27;20209;-69
2022/10/17 04:16:26;;;;;;;3.90;3.60;;;15.70;99.90;;;;;;5111741;28;20263;-69
2022/10/17 04:18:55;;;;;;;3.90;3.60;;;15.70;99.90;;;;;;5131625;27;20216;-68
2022/10/17 04:21:22;;;;;;;3.80;3.10;;;15.70;99.90;;;;;;5129640;27;20238;-68
2022/10/17 04:23:52;;;;;;;4.13;3.70;;;15.70;99.90;;;;;;5111398;28;20704;-69
2022/10/17 04:26:19;;;;;;;3.60;3.40;;;15.70;99.90;;;;;;5114403;27;20707;-68
2022/10/17 04:28:47;;;;;;;3.90;3.60;;;15.60;99.90;;;;;;5132351;27;20216;-68
2022/10/17 04:31:15;;;;;;;4.20;3.80;;;15.60;99.90;;;;;;5131912;27;20229;-69
2022/10/17 04:33:43;;;;;;;3.67;3.47;;;15.60;99.90;;;;;;5132327;27;20214;-68
2022/10/17 04:36:12;;;;;;;3.57;3.37;;;15.50;99.90;;;;;;5131616;27;20212;-68
2022/10/17 04:38:39;;;;;;;3.63;3.33;;;15.60;99.90;;;;;;5132281;27;20201;-69
2022/10/17 04:41:10;;;;;;;3.90;3.60;;;15.50;99.90;;;;;;5131515;27;20209;-68
2022/10/17 04:43:39;;;;;;;3.87;3.57;;;15.50;99.90;;;;;;5132115;27;20190;-69
2022/10/17 04:46:08;;;;;;;4.27;3.60;;;15.50;99.90;;;;;;5132006;27;20206;-68
2022/10/17 04:48:35;;;;;;;4.17;3.87;;;15.50;99.90;;;;;;5127796;27;20233;-69
2022/10/17 04:51:05;;;;;;;4.33;3.63;;;15.50;99.90;;;;;;5114546;27;20241;-68
2022/10/17 04:53:34;;;;;;;4.57;3.63;;;15.50;99.90;;;;;;5111164;28;20680;-68
2022/10/17 04:56:01;;;;;;;4.13;3.77;;;15.50;99.90;;;;;;5111117;28;20213;-68
2022/10/17 04:58:29;;;;;;;5.13;3.70;;;15.50;99.90;;;;;;5128456;27;20527;-68
2022/10/17 05:00:56;;;;;;;3.93;3.73;;;15.50;99.90;;;;;;5131054;27;20276;-69
2022/10/17 05:03:24;;;;;;;3.40;3.20;;;15.50;99.90;;;;;;5130429;27;20216;-68
2022/10/17 05:05:51;;;;;;;3.80;3.50;;;15.50;99.90;;;;;;5130039;27;20205;-69
2022/10/17 05:08:18;;;;;;;4.10;3.80;;;15.40;99.90;;;;;;5123977;27;20827;-69
2022/10/17 05:10:45;;;;;;;4.60;4.30;;;15.40;99.90;;;;;;5123673;28;20241;-68
2022/10/17 05:13:12;;;;;;;8.23;4.20;;;15.50;99.90;;;;;;5130156;27;20670;-69
2022/10/17 05:15:39;;;;;;;4.43;4.03;;;15.40;99.90;;;;;;5130075;27;20201;-68
2022/10/17 05:18:06;;;;;;;3.70;3.50;;;15.40;99.90;;;;;;5130314;27;20213;-69
2022/10/17 05:20:34;;;;;;;3.60;3.30;;;15.40;99.90;;;;;;5129447;27;20583;-69
2022/10/17 05:23:02;;;;;;;4.20;3.90;;;15.40;99.90;;;;;;5130139;27;20230;-68
2022/10/17 05:25:28;;;;;;;3.93;3.67;;;15.40;99.90;;;;;;5129608;27;20600;-68
2022/10/17 05:27:55;;;;;;;5.67;3.57;;;15.40;99.90;;;;;;5130459;27;20206;-69
2022/10/17 05:30:22;;;;;;;3.20;3.00;;;15.40;99.90;;;;;;5129746;27;20202;-68
2022/10/17 05:32:52;;;;;;;3.90;3.67;;;15.40;99.90;;;;;;5129955;27;20228;-68
2022/10/17 05:35:19;;;;;;;3.53;3.30;;;15.40;99.90;;;;;;5129915;27;20197;-69
2022/10/17 05:37:47;;;;;;;4.00;3.77;;;15.40;99.90;;;;;;5129918;27;20634;-68
2022/10/17 05:40:14;;;;;;;3.37;3.00;;;15.40;99.90;;;;;;5129531;27;20209;-68
2022/10/17 05:42:45;;;;;;;3.63;3.43;;;15.40;99.90;;;;;;5129521;27;20201;-68
2022/10/17 05:45:12;;;;;;;3.80;3.60;;;15.40;99.90;;;;;;5129618;27;20461;-69
2022/10/17 05:47:38;;;;;;;4.73;3.50;;;15.40;99.90;;;;;;5123071;27;20217;-69
2022/10/17 05:50:06;;;;;;;6.20;3.30;;;15.40;99.90;;;;;;5125652;28;20204;-68
2022/10/17 05:52:33;;;;;;;3.70;3.40;;;15.40;99.90;;;;;;5129215;27;20245;-69
2022/10/17 05:55:01;;;;;;;3.53;3.33;;;15.40;99.90;;;;;;5129050;27;20676;-68
2022/10/17 05:57:27;;;;;;;3.77;3.57;;;15.40;99.90;;;;;;5128862;27;20692;-68
2022/10/17 05:59:54;;;;;;;4.40;3.57;;;15.40;99.90;;;;;;5129428;27;20205;-68
2022/10/17 06:02:21;;;;;;;5.67;3.40;;;15.40;99.90;;;;;;5124820;27;100123;-68
2022/10/17 06:04:48;;;;;;;3.73;3.43;;;15.40;99.90;;;;;;5130136;27;20205;-68
2022/10/17 06:07:16;;;;;;;3.70;3.50;;;15.40;99.90;;;;;;5113222;27;20206;-68
2022/10/17 06:09:42;;;;;;;3.37;3.17;;;15.40;99.90;;;;;;5109465;28;20232;-69
2022/10/17 06:12:10;;;;;;;3.33;3.13;;;15.40;99.90;;;;;;5109130;28;20235;-69
2022/10/17 06:14:37;;;;;;;3.67;3.37;;;15.40;99.90;;;;;;5109971;28;20213;-68
2022/10/17 06:17:04;;;;;;;3.73;3.50;;;15.40;99.90;;;;;;5109648;28;20206;-68
2022/10/17 06:19:31;;;;;;;3.90;3.70;;;15.40;99.90;;;;;;5118607;27;20198;-68
2022/10/17 06:21:57;;;;;;;3.93;3.33;;;15.40;99.90;;;;;;5129870;27;20298;-68
2022/10/17 06:24:24;;;;;;;3.87;3.57;;;15.40;99.90;;;;;;5129774;27;20205;-68
2022/10/17 06:26:51;;;;;;;3.80;3.60;;;15.40;99.90;;;;;;5129633;27;20197;-69
2022/10/17 06:29:19;;;;;;;5.03;3.47;;;15.40;99.90;;;;;;5129392;27;20201;-68
2022/10/17 06:31:46;;;;;;;3.80;3.50;;;15.40;99.90;;;;;;5128476;27;20590;-68
2022/10/17 06:34:13;;;;;;;3.57;3.37;;;15.40;99.90;;;;;;5129385;27;20210;-69
2022/10/17 06:36:39;;;;;;;3.43;3.13;;;15.40;99.90;;;;;;5129729;27;20194;-68
2022/10/17 06:39:06;;;;;;;4.13;3.60;;;15.40;99.90;;;;;;5129675;27;20211;-69
2022/10/17 06:41:33;;;;;;;3.57;3.37;;;15.50;99.90;;;;;;5128830;27;20698;-69
2022/10/17 06:44:00;;;;;;;3.60;3.30;;;15.50;99.90;;;;;;5129542;27;20202;-69
2022/10/17 06:46:28;;;;;;;3.50;3.30;;;15.50;99.90;;;;;;5129078;27;20982;-68
2022/10/17 06:48:55;;;;;;;4.07;3.47;;;15.50;99.90;;;;;;5122414;27;20225;-69
2022/10/17 06:51:22;;;;;;;4.40;3.40;;;15.50;99.90;;;;;;5111409;27;20225;-68
2022/10/17 06:53:49;;;;;;;3.40;3.20;;;15.50;99.90;;;;;;5129650;27;20201;-69
2022/10/17 06:56:15;;;;;;;4.00;3.60;;;15.50;99.90;;;;;;5129227;27;20198;-68
2022/10/17 06:58:42;;;;;;;3.77;3.50;;;15.50;99.90;;;;;;5129626;27;20201;-69
2022/10/17 07:01:12;;;;;;;4.57;3.53;;;15.60;99.90;;;;;;5128901;27;20241;-68
2022/10/17 07:03:40;;;;;;;3.60;3.40;;;15.60;99.90;;;;;;5111492;27;20222;-69
2022/10/17 07:06:09;;;;;;;3.53;3.23;;;15.60;99.90;;;;;;5115560;27;20292;-69
2022/10/17 07:08:36;;;;;;;3.43;3.23;;;15.60;99.90;;;;;;5129430;27;20313;-68
2022/10/17 07:11:09;;;;;;;3.70;3.50;;;15.60;99.90;;;;;;5129101;27;20205;-69
2022/10/17 07:13:36;;;;;;;3.23;3.03;;;15.70;99.90;;;;;;5129233;27;20687;-69
2022/10/17 07:16:03;;;;;;;4.13;3.50;;;15.70;99.90;;;;;;5128776;27;20213;-67
2022/10/17 07:18:29;;;;;;;3.80;3.40;;;15.70;99.90;;;;;;5129263;27;20597;-69
2022/10/17 07:20:58;;;;;;;3.73;3.43;;;15.80;99.90;;;;;;5129245;27;20209;-69
2022/10/17 07:23:24;;;;;;;3.93;2.93;;;15.80;99.90;;;;;;5108709;27;20704;-69
2022/10/17 07:25:51;;;;;;;5.43;3.40;;;15.80;99.90;;;;;;5108189;28;20213;-68
2022/10/17 07:28:18;;;;;;;3.63;3.10;;;15.90;99.90;;;;;;5108172;28;20591;-68
2022/10/17 07:30:45;;;;;;;5.40;3.40;;;15.90;99.90;;;;;;5108443;28;20201;-68
2022/10/17 07:33:12;;;;;;;4.23;3.83;;;15.90;99.90;;;;;;5108248;28;20225;-69
2022/10/17 07:35:40;;;;;;;3.40;3.20;;;16.00;99.90;;;;;;5108356;28;20214;-68
2022/10/17 07:38:08;;;;;;;3.00;2.80;;;16.00;99.90;;;;;;5108634;28;20239;-69
2022/10/17 07:40:35;;;;;;;3.67;3.37;;;16.10;99.90;;;;;;5117878;27;20209;-68
2022/10/17 07:43:02;;;;;;;3.90;3.33;;;16.10;99.90;;;;;;5128581;27;20218;-69
2022/10/17 07:45:29;;;;;;;4.40;3.00;;;16.20;99.90;;;;;;5128848;27;20209;-68
2022/10/17 07:47:57;;;;;;;3.73;3.20;;;16.20;99.90;;;;;;5128795;27;20205;-69
2022/10/17 07:50:23;;;;;;;3.37;3.10;;;16.30;99.90;;;;;;5108871;27;20202;-69
2022/10/17 07:52:50;;;;;;;3.23;2.90;;;16.30;99.90;;;;;;5122804;27;20707;-69
2022/10/17 07:55:18;;;;;;;2.90;2.70;;;16.40;99.90;;;;;;5128035;27;20660;-69
2022/10/17 07:57:45;;;;;;;3.47;3.20;;;16.40;99.90;;;;;;5128370;27;20209;-69
2022/10/17 08:00:12;;;;;;;3.47;2.80;;;16.40;99.90;;;;;;5107812;27;20833;-69
2022/10/17 08:02:39;;;;;;;3.23;2.93;;;16.50;99.90;;;;;;5107472;28;20230;-68
2022/10/17 08:05:06;;;;;;;3.43;2.90;;;16.50;99.90;;;;;;5107811;28;20214;-68
2022/10/17 08:07:33;;;;;;;3.57;2.83;;;16.60;99.90;;;;;;5107823;28;20209;-69
2022/10/17 08:10:00;;;;;;;3.33;3.03;;;16.60;99.90;;;;;;5108057;28;20202;-69
2022/10/17 08:12:30;;;;;;;2.90;2.70;;;16.70;99.90;;;;;;5107296;28;20226;-68
2022/10/17 08:14:57;;;;;;;2.47;2.37;;;16.80;99.90;;;;;;5107779;28;20686;-69
2022/10/17 08:17:24;;;;;;;4.73;2.97;;;16.90;99.90;;;;;;5107582;28;20213;-69
2022/10/17 08:19:51;;;;;;;2.90;2.70;;;16.90;99.90;;;;;;5107560;28;20604;-69
2022/10/17 08:22:18;;;;;;;3.00;2.80;;;17.00;99.90;;;;;;5117622;28;20232;-69
2022/10/17 08:24:45;;;;;;;2.83;2.60;;;17.00;99.90;;;;;;5128377;27;20201;-69
2022/10/17 08:27:12;;;;;;;2.60;2.40;;;17.00;99.90;;;;;;5127696;27;20267;-69
2022/10/17 08:29:41;;;;;;;3.00;2.50;;;17.00;99.90;;;;;;5127908;27;20202;-69
2022/10/17 08:32:08;;;;;;;2.70;2.50;;;17.00;99.90;;;;;;5127678;27;20686;-69
2022/10/17 08:34:35;;;;;;;2.97;2.70;;;17.10;99.90;;;;;;5128073;27;20209;-69
2022/10/17 08:37:02;;;;;;;4.90;2.50;;;17.20;99.90;;;;;;5128071;27;20201;-69
2022/10/17 08:39:28;;;;;;;3.03;2.73;;;17.20;99.90;;;;;;5127933;27;20699;-68
2022/10/17 08:42:05;;;;;;;5.60;2.40;;;17.30;99.90;;;;;;5127981;27;20202;-68
2022/10/17 08:44:45;;;;;;;3.00;2.70;;;17.40;99.90;;;;;;5127482;27;20208;-69
2022/10/17 08:47:16;;;;;;;4.03;2.97;;;17.40;99.90;;;;;;5128075;27;20197;-69
2022/10/17 08:49:51;;;;;;;2.50;2.30;;;17.50;99.90;;;;;;5114136;27;20205;-69
2022/10/17 08:52:24;;;;;;;5.07;2.60;;;17.60;99.90;;;;;;5117691;28;20233;-69
2022/10/17 08:54:51;;;;;;;2.87;2.53;;;17.70;99.90;;;;;;5130155;27;20209;-69
2022/10/17 08:57:18;;;;;;;3.97;2.53;;;17.70;99.90;;;;;;5131135;27;20692;-69
2022/10/17 08:59:51;;;;;;;3.37;2.60;;;17.80;99.90;;;;;;5131719;27;20833;-68
2022/10/17 09:02:36;;;;;;;2.70;2.50;;;17.90;99.90;;;;;;5131114;27;20270;-69
2022/10/17 09:05:26;;;;;;;2.87;2.60;;;17.90;99.90;;;;;;5131401;27;20663;-69
2022/10/17 09:08:00;;;;;;;3.80;2.70;;;17.90;99.90;;;;;;5131323;27;20686;-68
2022/10/17 09:10:33;;;;;;;2.40;2.20;;;18.00;99.90;;;;;;5131294;27;20193;-69
2022/10/17 09:13:12;;;;;;;3.87;2.37;;;18.00;99.90;;;;;;5131435;27;20213;-68
2022/10/17 09:15:55;;;;;;;2.97;2.67;;;18.10;99.90;;;;;;5131391;27;20189;-69
2022/10/17 09:18:26;;;;;;;2.90;2.70;;;18.20;99.90;;;;;;5131383;27;20201;-69
2022/10/17 09:20:57;;;;;;;3.80;2.77;;;18.20;99.90;;;;;;5131488;27;20200;-69
2022/10/17 09:23:26;;;;;;;3.00;2.67;;;18.20;99.90;;;;;;5111405;27;20258;-68
2022/10/17 09:25:54;;;;;;;2.43;2.23;;;18.30;99.90;;;;;;5110834;28;20210;-69
2022/10/17 09:28:27;;;;;;;3.80;2.57;;;18.40;99.90;;;;;;5110645;28;20662;-69
2022/10/17 09:30:59;;;;;;;2.63;2.40;;;18.40;99.90;;;;;;5110722;28;20198;-69
2022/10/17 09:33:29;;;;;;;2.53;2.40;;;18.50;99.90;;;;;;5123521;27;20229;-69
2022/10/17 09:35:56;;;;;;;2.53;2.40;;;18.50;99.90;;;;;;5131560;27;20232;-69
2022/10/17 09:38:31;;;;;;;3.57;2.57;;;18.60;99.90;;;;;;5130919;27;20232;-69
2022/10/17 09:41:00;;;;;;;9.93;2.80;;;18.60;99.90;;;;;;5130872;27;20193;-69
2022/10/17 09:43:28;;;;;;;2.60;2.40;;;18.70;99.90;;;;;;5130971;27;20205;-68
2022/10/17 09:46:07;;;;;;;2.57;2.47;;;18.70;99.90;;;;;;5130653;27;20215;-69
2022/10/17 09:48:38;;;;;;;3.00;2.50;;;18.80;99.90;;;;;;5126555;27;20532;-69
2022/10/17 09:51:06;;;;;;;3.03;2.83;;;18.80;99.90;;;;;;5122282;27;20214;-69
2022/10/17 09:53:36;;;;;;;4.17;2.97;;;18.90;99.90;;;;;;5110218;27;20225;-69
2022/10/17 09:56:08;;;;;;;2.87;2.40;;;19.00;99.90;;;;;;5126319;27;20204;-69
2022/10/17 09:58:42;;;;;;;3.17;2.77;;;19.10;99.90;;;;;;5130598;27;20190;-69
2022/10/17 10:01:19;;;;;;;2.50;2.40;;;19.10;99.90;;;;;;5129998;27;20766;-69
2022/10/17 10:03:46;;;;;;;3.30;2.57;;;19.20;99.90;;;;;;5114430;27;20205;-69
2022/10/17 10:06:15;;;;;;;4.03;2.60;;;19.30;99.90;;;;;;5128883;27;20225;-68
2022/10/17 10:08:50;;;;;;;3.80;2.43;;;19.40;99.90;;;;;;5130326;27;20205;-68
2022/10/17 10:11:17;;;;;;;5.13;2.40;;;19.50;99.90;;;;;;5129579;27;20197;-69
2022/10/17 10:13:47;;;;;;;2.60;2.40;;;19.50;99.90;;;;;;5130207;27;20248;-69
2022/10/17 10:16:23;;;;;;;2.70;2.47;;;19.60;99.90;;;;;;5129474;27;20208;-69
2022/10/17 10:18:50;;;;;;;3.50;2.50;;;19.70;99.90;;;;;;5130075;27;20355;-69
2022/10/17 10:21:19;;;;;;;3.50;2.80;;;19.70;99.90;;;;;;5127886;27;20201;-69
2022/10/17 10:24:04;;;;;;;2.50;2.40;;;19.70;99.90;;;;;;5109419;28;20226;-69
2022/10/17 10:26:36;;;;;;;2.97;2.37;;;19.70;99.90;;;;;;5108859;28;20285;-69
2022/10/17 10:29:06;;;;;;;3.20;2.80;;;19.80;99.90;;;;;;5109303;28;20202;-69
2022/10/17 10:31:38;;;;;;;5.00;2.97;;;19.80;99.90;;;;;;5109056;28;20224;-68
2022/10/17 10:34:16;;;;;;;3.23;3.03;;;19.80;99.90;;;;;;5109386;27;20229;-69
2022/10/17 10:36:55;;;;;;;2.58;2.35;;;19.90;99.90;;;;;;5109396;28;20190;-69
2022/10/17 10:39:42;;;;;;;4.73;2.57;;;20.10;99.90;;;;;;5108791;28;20864;-68
2022/10/17 10:42:20;;;;;;;3.00;2.70;;;20.20;99.90;;;;;;5108298;28;20719;-69
2022/10/17 10:44:49;;;;;;;3.72;2.35;;;20.30;99.90;;;;;;5109030;28;20202;-69
2022/10/17 10:47:21;;;;;;;2.53;2.30;;;20.30;99.90;;;;;;5114549;27;20203;-69
2022/10/17 10:49:50;;;;;;;2.97;2.53;;;20.40;99.90;;;;;;5114948;27;20202;-69
2022/10/17 10:52:27;;;;;;;2.63;2.40;;;20.50;99.90;;;;;;5114554;27;20214;-69
2022/10/17 10:55:03;;;;;;;4.25;2.47;;;20.60;99.90;;;;;;5108601;28;20186;-69
2022/10/17 10:57:33;;;;;;;2.90;2.30;;;20.70;99.90;;;;;;5108245;28;20606;-69
2022/10/17 11:00:06;;;;;;;2.33;2.13;;;20.90;99.90;;;;;;5127280;27;20201;-69
2022/10/17 11:02:40;;;;;;;3.03;2.33;;;21.00;99.90;;;;;;5128791;27;20237;-69
2022/10/17 11:05:13;;;;;;;3.17;2.45;;;21.10;99.90;;;;;;5129078;27;20660;-69
2022/10/17 11:07:47;;;;;;;2.53;2.42;;;21.20;99.90;;;;;;5129347;27;20194;-69
2022/10/17 11:10:19;;;;;;;2.75;2.25;;;21.30;99.90;;;;;;5129068;27;20189;-69
2022/10/17 11:12:52;;;;;;;2.40;2.30;;;21.40;99.90;;;;;;5129065;27;20706;-69
2022/10/17 11:15:29;;;;;;;4.95;2.45;;;21.40;99.90;;;;;;5129224;27;20216;-69
2022/10/17 11:18:01;;;;;;;2.90;2.05;;;21.50;99.90;;;;;;5128946;27;20190;-69
2022/10/17 11:20:36;;;;;;;2.20;2.03;;;21.70;99.90;;;;;;5129075;27;20550;-69
2022/10/17 11:23:18;;;;;;;2.40;2.20;;;21.70;99.90;;;;;;5128962;27;20229;-69
2022/10/17 11:25:47;;;;;;;2.88;2.50;;;21.70;99.90;;;;;;5128993;27;20260;-69
2022/10/17 11:28:16;;;;;;;5.70;2.10;;;21.80;99.90;;;;;;5128840;27;20573;-69
2022/10/17 11:30:57;;;;;;;3.83;2.15;;;21.80;99.90;;;;;;5129020;27;20205;-69
2022/10/17 11:33:29;;;;;;;2.67;2.25;;;21.90;99.90;;;;;;5128720;27;20228;-69
2022/10/17 11:36:03;;;;;;;2.60;2.40;;;22.00;99.90;;;;;;5128797;27;20204;-69
2022/10/17 11:38:39;;;;;;;2.60;2.35;;;22.00;99.90;;;;;;5128820;27;20185;-69
2022/10/17 11:41:07;;;;;;;2.40;2.20;;;22.10;99.90;;;;;;5128546;27;20197;-69
2022/10/17 11:43:40;;;;;;;5.53;2.30;;;22.20;99.90;;;;;;5116121;27;20747;-69
2022/10/17 11:46:14;;;;;;;3.67;2.00;;;22.30;99.90;;;;;;5128364;27;20186;-69
2022/10/17 11:48:52;;;;;;;2.60;2.28;;;22.30;99.90;;;;;;5110536;27;20206;-69
2022/10/17 11:51:19;;;;;;;2.20;2.10;;;22.30;99.90;;;;;;5110073;28;20203;-69
2022/10/17 11:53:52;;;;;;;2.35;2.15;;;22.30;99.90;;;;;;5128571;27;20240;-69
2022/10/17 11:56:26;;;;;;;2.85;2.33;;;22.40;99.90;;;;;;5112088;28;20246;-69
2022/10/17 11:59:02;;;;;;;2.00;1.90;;;22.50;99.90;;;;;;5128677;27;20221;-69
2022/10/17 12:01:37;;;;;;;3.08;2.20;;;22.60;99.90;;;;;;5128071;27;20244;-69
2022/10/17 12:04:18;;;;;;;3.03;2.20;;;22.70;99.90;;;;;;5128405;27;20193;-69
2022/10/17 12:06:56;;;;;;;2.47;2.38;;;22.80;99.90;;;;;;5128114;27;20640;-69
2022/10/17 12:09:30;;;;;;;2.78;2.15;;;22.80;99.90;;;;;;5128106;27;20632;-69
2022/10/17 12:11:59;;;;;;;4.00;2.30;;;22.90;99.90;;;;;;5128443;27;20201;-69
2022/10/17 12:14:40;;;;;;;2.38;2.28;;;23.00;99.90;;;;;;5128166;27;20241;-69
2022/10/17 12:17:33;;;;;;;3.58;2.47;;;23.10;99.90;;;;;;5128303;27;20228;-69
2022/10/17 12:20:27;;;;;;;7.45;2.45;;;23.20;99.90;;;;;;5128054;27;20200;-69
2022/10/17 12:22:57;;;;;;;2.60;2.10;;;23.40;99.90;;;;;;5127994;27;20228;-69
2022/10/17 12:25:28;;;;;;;2.53;2.15;;;23.40;99.90;;;;;;5127775;27;20235;-69
2022/10/17 12:28:11;;;;;;;2.25;2.05;;;23.60;99.90;;;;;;5128293;27;20297;-69
2022/10/17 12:30:50;;;;;;;3.35;2.15;;;23.70;99.90;;;;;;5131556;27;20640;-69
2022/10/17 12:33:21;;;;;;;3.30;2.25;;;23.80;99.90;;;;;;5131862;27;20224;-69
2022/10/17 12:36:10;;;;;;;2.17;1.98;;;23.80;99.90;;;;;;5132560;27;20239;-68
2022/10/17 12:38:37;;;;;;;3.28;2.33;;;23.90;99.90;;;;;;5131473;27;20204;-68
2022/10/17 12:41:06;;;;;;;4.05;2.15;;;23.90;99.90;;;;;;5114427;27;20280;-68
2022/10/17 12:43:48;;;;;;;4.75;1.95;;;24.00;99.90;;;;;;5117083;27;20679;-68
2022/10/17 12:46:44;;;;;;;2.35;2.05;;;24.10;99.90;;;;;;5131631;27;20194;-68
2022/10/17 12:49:30;;;;;;;3.47;2.17;;;24.10;99.90;;;;;;5131343;27;20197;-68
2022/10/17 12:52:20;;;;;;;4.53;1.92;;;24.10;99.90;;;;;;5123962;27;20206;-68
2022/10/17 12:54:54;;;;;;;2.42;2.25;;;24.10;99.90;;;;;;5131467;27;20691;-68
2022/10/17 12:57:27;;;;;;;1.95;1.75;;;24.10;99.90;;;;;;5131270;27;20575;-68
2022/10/17 12:59:53;;;;;;;2.97;2.03;;;24.10;99.90;;;;;;5131780;27;20201;-68
2022/10/17 13:02:25;;;;;;;6.07;2.42;;;24.00;99.90;;;;;;5130791;27;20711;-68
2022/10/17 13:05:06;;;;;;;5.00;2.15;;;23.90;99.90;;;;;;5131523;27;20209;-68